createdAt,value
2023-05-14T00:02:16.230Z,49.60
2023-05-14T00:04:44.364Z,56.20
2023-05-14T00:07:12.694Z,59.00
2023-05-14T00:09:40.913Z,61.00
2023-05-14T00:12:09.468Z,54.70
2023-05-14T00:14:37.731Z,52.60
2023-05-14T00:17:06.026Z,51.60
2023-05-14T00:19:34.170Z,50.80
2023-05-14T00:22:02.483Z,49.70
2023-05-14T00:24:30.667Z,49.10
2023-05-14T00:26:58.876Z,54.70
2023-05-14T00:29:27.300Z,57.90
2023-05-14T00:31:55.624Z,60.00
2023-05-14T00:34:23.845Z,56.80
2023-05-14T00:36:52.638Z,53.30
2023-05-14T00:39:21.085Z,51.70
2023-05-14T00:41:49.331Z,50.90
2023-05-14T00:44:17.525Z,50.10
2023-05-14T00:46:45.923Z,49.30
2023-05-14T00:49:14.227Z,48.20
2023-05-14T00:51:43.548Z,47.80
2023-05-14T00:54:12.197Z,46.90
2023-05-14T00:56:40.604Z,46.30
2023-05-14T00:59:08.763Z,46.20
2023-05-14T01:01:37.703Z,46.00
2023-05-14T01:04:07.439Z,45.70
2023-05-14T01:07:11.713Z,45.40
2023-05-14T01:09:42.938Z,44.60
2023-05-14T01:12:42.738Z,50.60
2023-05-14T01:15:17.212Z,54.50
2023-05-14T01:17:57.267Z,57.40
2023-05-14T01:20:27.153Z,58.70
2023-05-14T01:22:55.430Z,52.60
2023-05-14T01:25:23.856Z,50.70
2023-05-14T01:28:01.929Z,49.60
2023-05-14T01:30:40.995Z,49.40
2023-05-14T01:33:14.020Z,56.60
2023-05-14T01:35:43.321Z,59.20
2023-05-14T01:38:15.599Z,60.90
2023-05-14T01:40:46.841Z,59.90
2023-05-14T01:43:16.940Z,54.40
2023-05-14T01:45:45.778Z,52.60
2023-05-14T01:48:14.039Z,51.00
2023-05-14T01:50:42.654Z,56.70
2023-05-14T01:53:11.075Z,60.10
2023-05-14T01:55:39.608Z,61.60
2023-05-14T01:58:07.814Z,61.50
2023-05-14T02:00:36.384Z,56.20
2023-05-14T02:03:04.666Z,53.90
2023-05-14T02:05:33.263Z,52.60
2023-05-14T02:08:01.744Z,54.80
2023-05-14T02:10:29.869Z,60.10
2023-05-14T02:12:58.096Z,62.30
2023-05-14T02:15:26.357Z,63.70
2023-05-14T02:17:55.193Z,57.60
2023-05-14T02:20:23.642Z,54.70
2023-05-14T02:22:51.960Z,53.20
2023-05-14T02:25:20.059Z,51.90
2023-05-14T02:27:49.124Z,51.00
2023-05-14T02:30:17.848Z,50.50
2023-05-14T02:32:46.355Z,49.60
2023-05-14T02:35:14.760Z,50.80
2023-05-14T02:37:42.842Z,56.40
2023-05-14T02:40:11.673Z,58.90
2023-05-14T02:42:39.681Z,60.70
2023-05-14T02:45:08.571Z,54.40
2023-05-14T02:47:38.148Z,52.10
2023-05-14T02:50:07.443Z,51.10
2023-05-14T02:52:36.235Z,57.10
2023-05-14T02:55:05.065Z,59.70
2023-05-14T02:57:33.171Z,61.70
2023-05-14T03:00:01.485Z,62.30
2023-05-14T03:02:30.462Z,56.10
2023-05-14T03:04:58.776Z,54.00
2023-05-14T03:07:27.120Z,52.90
2023-05-14T03:09:55.533Z,53.50
2023-05-14T03:12:23.776Z,59.20
2023-05-14T03:14:52.597Z,61.80
2023-05-14T03:17:20.696Z,63.60
2023-05-14T03:19:49.065Z,57.40
2023-05-14T03:22:17.434Z,54.30
2023-05-14T03:24:45.663Z,52.90
2023-05-14T03:27:14.026Z,56.30
2023-05-14T03:29:42.239Z,60.70
2023-05-14T03:32:10.573Z,63.00
2023-05-14T03:34:38.851Z,63.90
2023-05-14T03:37:07.230Z,57.90
2023-05-14T03:39:35.483Z,55.40
2023-05-14T03:42:06.216Z,54.70
2023-05-14T03:44:34.565Z,53.20
2023-05-14T03:47:02.651Z,51.90
2023-05-14T03:49:31.265Z,50.90
2023-05-14T03:51:59.499Z,57.40
2023-05-14T03:54:28.257Z,60.30
2023-05-14T03:56:56.101Z,62.60
2023-05-14T03:59:24.113Z,60.70
2023-05-14T04:01:52.384Z,55.50
2023-05-14T04:04:20.750Z,53.60
2023-05-14T04:06:49.036Z,52.50
2023-05-14T04:09:17.228Z,58.70
2023-05-14T04:11:45.440Z,62.00
2023-05-14T04:14:14.034Z,63.00
2023-05-14T04:16:43.491Z,60.80
2023-05-14T04:19:12.276Z,56.00
2023-05-14T04:21:40.702Z,54.40
2023-05-14T04:24:09.323Z,53.00
2023-05-14T04:26:37.416Z,53.50
2023-05-14T04:29:05.891Z,59.10
2023-05-14T04:31:34.181Z,61.80
2023-05-14T04:34:02.593Z,63.40
2023-05-14T04:36:30.866Z,62.90
2023-05-14T04:38:59.045Z,57.50
2023-05-14T04:41:27.219Z,55.20
2023-05-14T04:43:57.263Z,53.90
2023-05-14T04:46:25.559Z,55.90
2023-05-14T04:48:53.842Z,60.90
2023-05-14T04:51:21.994Z,63.20
2023-05-14T04:53:50.227Z,64.50
2023-05-14T04:56:18.570Z,60.70
2023-05-14T04:58:46.798Z,56.60
2023-05-14T05:01:15.125Z,54.70
2023-05-14T05:03:43.486Z,53.60
2023-05-14T05:06:11.983Z,59.60
2023-05-14T05:08:40.041Z,62.20
2023-05-14T05:11:08.259Z,63.90
2023-05-14T05:13:36.527Z,64.60
2023-05-14T05:16:04.884Z,57.70
2023-05-14T05:18:33.332Z,55.50
2023-05-14T05:21:01.401Z,54.40
2023-05-14T05:23:29.803Z,52.70
2023-05-14T05:25:58.046Z,56.90
2023-05-14T05:28:26.084Z,60.60
2023-05-14T05:30:54.440Z,63.10
2023-05-14T05:33:22.733Z,64.70
2023-05-14T05:35:51.049Z,62.50
2023-05-14T05:38:19.089Z,57.30
2023-05-14T05:40:48.328Z,55.10
2023-05-14T05:43:16.703Z,53.70
2023-05-14T05:45:45.108Z,59.10
2023-05-14T05:48:14.052Z,62.30
2023-05-14T05:50:44.338Z,64.10
2023-05-14T05:53:12.631Z,64.90
2023-05-14T05:55:41.635Z,58.40
2023-05-14T05:58:09.725Z,55.60
2023-05-14T06:00:38.040Z,54.50
2023-05-14T06:03:06.168Z,57.60
2023-05-14T06:05:34.753Z,61.90
2023-05-14T06:08:03.164Z,63.50
2023-05-14T06:10:31.458Z,65.60
2023-05-14T06:12:59.606Z,62.90
2023-05-14T06:15:27.766Z,57.60
2023-05-14T06:17:55.912Z,55.50
2023-05-14T06:20:24.331Z,54.40
2023-05-14T06:22:52.793Z,61.00
2023-05-14T06:25:21.113Z,63.30
2023-05-14T06:27:49.329Z,65.20
2023-05-14T06:30:17.607Z,66.30
2023-05-14T06:32:45.817Z,59.30
2023-05-14T06:35:14.146Z,57.30
2023-05-14T06:37:42.209Z,55.10
2023-05-14T06:40:10.943Z,60.00
2023-05-14T06:42:39.028Z,64.10
2023-05-14T06:45:08.151Z,66.20
2023-05-14T06:47:36.001Z,66.00
2023-05-14T06:50:09.408Z,59.30
2023-05-14T06:52:39.288Z,55.50
2023-05-14T06:55:08.002Z,61.20
2023-05-14T06:57:45.242Z,64.20
2023-05-14T07:00:14.088Z,66.60
2023-05-14T07:02:42.010Z,68.80
2023-05-14T07:05:10.937Z,71.00
2023-05-14T07:07:39.110Z,63.60
2023-05-14T07:10:08.038Z,59.60
2023-05-14T07:12:36.361Z,60.60
2023-05-14T07:15:05.096Z,65.00
2023-05-14T07:17:33.266Z,67.30
2023-05-14T07:20:01.566Z,68.80
2023-05-14T07:22:29.880Z,71.10
2023-05-14T07:24:57.972Z,65.40
2023-05-14T07:27:26.351Z,60.60
2023-05-14T07:29:54.509Z,59.40
2023-05-14T07:32:22.669Z,64.70
2023-05-14T07:34:50.957Z,67.20
2023-05-14T07:37:19.817Z,69.20
2023-05-14T07:39:49.244Z,71.20
2023-05-14T07:42:31.793Z,62.70
2023-05-14T07:45:03.412Z,58.40
2023-05-14T07:47:31.861Z,61.30
2023-05-14T07:50:00.503Z,64.90
2023-05-14T07:52:28.830Z,67.50
2023-05-14T07:54:57.092Z,69.80
2023-05-14T07:57:25.417Z,70.60
2023-05-14T07:59:53.761Z,64.00
2023-05-14T08:02:22.600Z,60.50
2023-05-14T08:04:51.048Z,58.60
2023-05-14T08:07:19.317Z,65.50
2023-05-14T08:09:47.626Z,68.10
2023-05-14T08:12:15.707Z,70.40
2023-05-14T08:14:44.046Z,72.50
2023-05-14T08:17:12.311Z,66.50
2023-05-14T08:19:40.783Z,62.40
2023-05-14T08:22:08.998Z,60.40
2023-05-14T08:24:37.318Z,65.40
2023-05-14T08:27:05.903Z,67.80
2023-05-14T08:29:35.380Z,70.40
2023-05-14T08:32:15.569Z,71.70
2023-05-14T08:34:50.858Z,66.10
2023-05-14T08:37:19.162Z,62.40
2023-05-14T08:39:47.508Z,60.80
2023-05-14T08:42:21.242Z,64.70
2023-05-14T08:44:52.293Z,67.70
2023-05-14T08:47:23.028Z,69.70
2023-05-14T08:50:01.988Z,72.00
2023-05-14T08:52:30.939Z,66.90
2023-05-14T08:55:03.308Z,63.00
2023-05-14T08:57:33.089Z,61.00
2023-05-14T09:00:02.196Z,66.00
2023-05-14T09:02:32.050Z,68.90
2023-05-14T09:05:01.591Z,70.80
2023-05-14T09:07:30.056Z,72.60
2023-05-14T09:11:28.111Z,64.40
2023-05-14T09:13:56.968Z,69.20
2023-05-14T09:16:33.025Z,69.00
2023-05-14T09:19:01.344Z,63.30
2023-05-14T09:21:31.582Z,60.00
2023-05-14T09:24:01.385Z,60.10
2023-05-14T09:26:33.567Z,65.20
2023-05-14T09:29:02.789Z,67.60
2023-05-14T09:31:32.647Z,69.50
2023-05-14T09:44:10.526Z,58.50
2023-05-14T09:46:38.940Z,61.40
2023-05-14T09:49:06.986Z,60.10
2023-05-14T09:51:35.246Z,57.60
2023-05-14T09:54:05.426Z,57.00
2023-05-14T09:56:34.812Z,60.10
2023-05-14T09:59:04.052Z,65.10
2023-05-14T10:01:33.276Z,68.30
2023-05-14T10:04:04.433Z,70.00
2023-05-14T10:06:38.205Z,63.40
2023-05-14T10:09:12.951Z,59.90
2023-05-14T10:11:49.079Z,56.90
2023-05-14T10:14:31.570Z,55.30
2023-05-14T10:17:07.748Z,58.10
2023-05-14T10:19:38.127Z,62.80
2023-05-14T10:22:10.681Z,66.30
2023-05-14T10:24:39.825Z,64.50
2023-05-14T10:27:08.256Z,61.00
2023-05-14T10:29:38.366Z,59.80
2023-05-14T10:32:09.259Z,59.30
2023-05-14T10:34:39.947Z,58.80
2023-05-14T10:37:14.506Z,58.10
2023-05-14T10:40:04.076Z,63.20
2023-05-14T10:42:37.932Z,68.40
2023-05-14T10:45:10.950Z,69.40
2023-05-14T10:47:42.479Z,65.10
2023-05-14T10:50:15.844Z,62.80
2023-05-14T10:52:45.929Z,61.30
2023-05-14T10:55:15.854Z,59.90
2023-05-14T10:57:46.213Z,59.00
2023-05-14T11:00:16.255Z,58.00
2023-05-14T11:02:46.111Z,61.30
2023-05-14T11:05:16.348Z,66.20
2023-05-14T11:07:49.684Z,69.50
2023-05-14T11:10:19.988Z,65.50
2023-05-14T11:12:50.152Z,61.80
2023-05-14T11:15:21.089Z,60.30
2023-05-14T11:17:50.686Z,57.90
2023-05-14T11:20:20.201Z,56.90
2023-05-14T11:22:49.781Z,56.40
2023-05-14T11:25:17.975Z,61.90
2023-05-14T11:27:47.308Z,65.20
2023-05-14T11:30:20.042Z,68.90
2023-05-14T11:32:49.962Z,66.20
2023-05-14T11:35:21.837Z,63.20
2023-05-14T11:37:53.484Z,61.40
2023-05-14T11:40:22.198Z,59.70
2023-05-14T11:42:52.460Z,58.10
2023-05-14T11:45:28.118Z,57.10
2023-05-14T11:47:56.601Z,63.90
2023-05-14T11:50:25.216Z,67.70
2023-05-14T11:52:56.998Z,70.00
2023-05-14T11:55:25.800Z,65.40
2023-05-14T11:57:54.454Z,62.90
2023-05-14T12:00:22.886Z,62.00
2023-05-14T12:02:51.281Z,61.20
2023-05-14T12:05:19.846Z,59.70
2023-05-14T12:07:48.433Z,58.60
2023-05-14T12:10:16.697Z,57.20
2023-05-14T12:12:48.256Z,56.70
2023-05-14T12:15:17.587Z,63.10
2023-05-14T12:17:51.520Z,67.10
2023-05-14T12:20:20.214Z,67.90
2023-05-14T12:22:48.365Z,63.60
2023-05-14T12:25:16.646Z,61.90
2023-05-14T12:27:46.593Z,60.40
2023-05-14T12:32:46.611Z,58.30
2023-05-14T12:35:14.774Z,55.90
2023-05-14T12:37:43.156Z,61.30
2023-05-14T12:40:12.029Z,65.00
2023-05-14T12:42:40.309Z,69.80
2023-05-14T12:45:11.157Z,67.80
2023-05-14T12:47:39.481Z,64.70
2023-05-14T12:50:08.324Z,64.20
2023-05-14T12:52:39.313Z,62.40
2023-05-14T12:55:09.518Z,61.30
2023-05-14T12:57:39.358Z,60.10
2023-05-14T13:00:10.263Z,58.90
2023-05-14T13:02:42.771Z,58.00
2023-05-14T13:05:15.095Z,57.00
2023-05-14T13:07:43.387Z,56.10
2023-05-14T13:10:12.015Z,55.40
2023-05-14T13:12:40.074Z,55.00
2023-05-14T13:15:08.740Z,54.00
2023-05-14T13:17:36.840Z,53.70
2023-05-14T13:20:05.728Z,52.90
2023-05-14T13:22:33.802Z,53.20
2023-05-14T13:25:02.020Z,58.60
2023-05-14T13:27:30.363Z,62.20
2023-05-14T13:29:59.266Z,64.50
2023-05-14T13:32:27.144Z,60.20
2023-05-14T13:34:55.619Z,57.80
2023-05-14T13:37:25.734Z,56.80
2023-05-14T13:39:53.969Z,56.20
2023-05-14T13:42:22.158Z,55.60
2023-05-14T13:44:50.586Z,55.00
2023-05-14T13:47:18.700Z,54.60
2023-05-14T13:49:47.014Z,54.50
2023-05-14T13:52:15.142Z,53.70
2023-05-14T13:54:43.798Z,52.60
2023-05-14T13:57:12.095Z,52.10
2023-05-14T13:59:40.503Z,51.70
2023-05-14T14:02:09.260Z,51.40
2023-05-14T14:04:37.727Z,51.20
2023-05-14T14:07:06.093Z,51.00
2023-05-14T14:09:34.336Z,50.60
2023-05-14T14:12:04.884Z,49.70
2023-05-14T14:14:33.214Z,49.90
2023-05-14T14:17:01.396Z,49.40
2023-05-14T14:19:29.702Z,49.10
2023-05-14T14:21:57.827Z,48.90
2023-05-14T14:24:26.319Z,48.60
2023-05-14T14:26:54.577Z,48.70
2023-05-14T14:29:22.814Z,48.60
2023-05-14T14:31:51.081Z,48.40
2023-05-14T14:34:19.540Z,48.10
2023-05-14T14:36:47.705Z,48.40
2023-05-14T14:39:15.902Z,48.60
2023-05-14T14:41:44.079Z,48.50
2023-05-14T14:44:12.695Z,48.30
2023-05-14T14:46:40.787Z,48.20
2023-05-14T14:49:09.277Z,48.90
2023-05-14T14:51:37.470Z,48.50
2023-05-14T14:54:05.874Z,48.30
2023-05-14T14:56:34.790Z,48.60
2023-05-14T14:59:03.036Z,49.30
2023-05-14T15:01:31.527Z,49.70
2023-05-14T15:03:59.809Z,50.30
2023-05-14T15:06:28.075Z,49.90
2023-05-14T15:08:56.210Z,49.90
2023-05-14T15:11:30.703Z,50.20
2023-05-14T15:13:59.085Z,50.10
2023-05-14T15:16:34.504Z,49.70
2023-05-14T15:19:03.215Z,49.80
2023-05-14T15:21:31.591Z,49.60
2023-05-14T15:24:00.019Z,49.60
2023-05-14T15:26:28.127Z,49.70
2023-05-14T15:28:56.596Z,49.70
2023-05-14T15:31:25.052Z,49.50
2023-05-14T15:33:54.438Z,49.60
2023-05-14T15:36:22.860Z,49.50
2023-05-14T15:38:51.251Z,48.30
2023-05-14T15:41:19.481Z,48.50
2023-05-14T15:43:48.139Z,54.80
2023-05-14T15:46:16.469Z,58.00
2023-05-14T15:48:44.836Z,60.60
2023-05-14T15:51:15.088Z,59.30
2023-05-14T15:53:44.202Z,55.10
2023-05-14T15:56:12.511Z,52.90
2023-05-14T15:58:40.749Z,51.50
2023-05-14T16:01:09.080Z,50.40
2023-05-14T16:03:37.471Z,49.60
2023-05-14T16:06:06.055Z,48.90
2023-05-14T16:08:34.241Z,48.50
2023-05-14T16:11:02.542Z,48.00
2023-05-14T16:13:30.781Z,48.00
2023-05-14T16:15:58.963Z,47.60
2023-05-14T16:18:27.280Z,48.00
2023-05-14T16:20:55.868Z,47.90
2023-05-14T16:23:23.977Z,47.90
2023-05-14T16:25:52.314Z,48.10
2023-05-14T16:28:20.618Z,47.50
2023-05-14T16:30:49.026Z,47.00
2023-05-14T16:33:17.388Z,46.60
2023-05-14T16:35:46.003Z,46.30
2023-05-14T16:38:18.420Z,46.00
2023-05-14T16:40:46.822Z,46.00
2023-05-14T16:43:15.723Z,46.00
2023-05-14T16:45:44.054Z,45.90
2023-05-14T16:48:12.546Z,45.50
2023-05-14T16:50:41.155Z,45.80
2023-05-14T16:53:09.336Z,45.10
2023-05-14T16:55:37.738Z,45.10
2023-05-14T16:58:06.172Z,45.20
2023-05-14T17:00:34.423Z,45.20
2023-05-14T17:03:03.832Z,45.00
2023-05-14T17:05:32.349Z,44.70
2023-05-14T17:08:00.460Z,44.80
2023-05-14T17:10:29.085Z,44.50
2023-05-14T17:12:57.550Z,45.00
2023-05-14T17:15:26.490Z,45.00
2023-05-14T17:17:55.950Z,44.80
2023-05-14T17:20:24.515Z,44.70
2023-05-14T17:22:52.674Z,45.20
2023-05-14T17:25:21.070Z,45.10
2023-05-14T17:27:49.382Z,44.60
2023-05-14T17:30:17.579Z,44.70
2023-05-14T17:32:45.885Z,44.70
2023-05-14T17:35:14.404Z,45.30
2023-05-14T17:37:43.249Z,45.20
2023-05-14T17:40:14.691Z,45.20
2023-05-14T17:42:42.935Z,45.30
2023-05-14T17:45:12.057Z,45.60
2023-05-14T17:47:40.336Z,45.60
2023-05-14T17:50:09.109Z,45.20
2023-05-14T17:52:37.073Z,44.80
2023-05-14T17:55:05.683Z,44.80
2023-05-14T17:57:33.988Z,44.80
2023-05-14T18:00:02.460Z,44.70
2023-05-14T18:02:39.089Z,44.20
2023-05-14T18:05:09.156Z,44.60
2023-05-14T18:07:38.925Z,44.70
2023-05-14T18:10:11.533Z,44.10
2023-05-14T18:12:39.751Z,44.60
2023-05-14T18:15:08.500Z,44.30
2023-05-14T18:17:36.819Z,44.10
2023-05-14T18:20:05.422Z,43.60
2023-05-14T18:22:33.653Z,44.10
2023-05-14T18:25:02.032Z,43.60
2023-05-14T18:27:30.502Z,43.90
2023-05-14T18:29:58.948Z,44.20
2023-05-14T18:32:27.522Z,43.60
2023-05-14T18:34:55.898Z,44.10
2023-05-14T18:37:24.162Z,43.40
2023-05-14T18:39:52.396Z,43.70
2023-05-14T18:42:20.887Z,43.40
2023-05-14T18:44:49.516Z,43.60
2023-05-14T18:47:17.879Z,43.60
2023-05-14T18:49:46.299Z,43.60
2023-05-14T18:52:14.939Z,43.30
2023-05-14T18:54:43.379Z,43.10
2023-05-14T18:57:11.852Z,43.30
2023-05-14T18:59:40.492Z,43.30
2023-05-14T19:02:10.909Z,43.90
2023-05-14T19:04:51.127Z,43.40
2023-05-14T19:07:21.509Z,43.40
2023-05-14T19:09:50.018Z,43.40
2023-05-14T19:12:18.544Z,42.90
2023-05-14T19:14:46.904Z,43.20
2023-05-14T19:17:15.840Z,43.10
2023-05-14T19:19:45.276Z,43.20
2023-05-14T19:22:13.666Z,43.00
2023-05-14T19:24:42.202Z,43.30
2023-05-14T19:27:10.681Z,43.90
2023-05-14T19:29:39.065Z,43.70
2023-05-14T19:32:07.628Z,43.50
2023-05-14T19:34:36.081Z,50.60
2023-05-14T19:37:05.072Z,54.50
2023-05-14T19:39:33.305Z,56.90
2023-05-14T19:42:04.941Z,60.20
2023-05-14T19:44:33.332Z,53.90
2023-05-14T19:47:01.991Z,50.60
2023-05-14T19:49:30.081Z,48.60
2023-05-14T19:51:58.375Z,53.00
2023-05-14T19:54:26.658Z,56.60
2023-05-14T19:56:55.089Z,59.40
2023-05-14T19:59:23.476Z,60.50
2023-05-14T20:01:52.098Z,53.90
2023-05-14T20:04:20.080Z,50.70
2023-05-14T20:06:48.536Z,52.00
2023-05-14T20:09:16.673Z,57.70
2023-05-14T20:11:45.145Z,59.50
2023-05-14T20:14:13.554Z,61.20
2023-05-14T20:16:42.178Z,55.20
2023-05-14T20:19:10.441Z,51.30
2023-05-14T20:21:38.960Z,49.20
2023-05-14T20:24:07.471Z,54.50
2023-05-14T20:26:35.969Z,57.80
2023-05-14T20:32:11.040Z,59.30
2023-05-14T20:34:39.422Z,60.60
2023-05-14T20:37:09.621Z,57.90
2023-05-14T20:39:37.945Z,53.40
2023-05-14T20:42:06.696Z,51.30
2023-05-14T20:44:34.934Z,49.90
2023-05-14T20:47:03.385Z,56.10
2023-05-14T20:49:31.807Z,58.80
2023-05-14T20:52:00.125Z,61.00
2023-05-14T20:54:28.609Z,61.90
2023-05-14T20:56:57.127Z,54.60
2023-05-14T20:59:25.625Z,50.70
2023-05-14T21:01:53.920Z,53.10
2023-05-14T21:04:24.452Z,57.80
2023-05-14T21:06:54.102Z,59.40
2023-05-14T21:09:22.877Z,60.60
2023-05-14T21:11:51.444Z,53.60
2023-05-14T21:14:19.689Z,49.80
2023-05-14T21:16:48.613Z,51.80
2023-05-14T21:19:17.214Z,56.70
2023-05-14T21:21:45.902Z,59.40
2023-05-14T21:24:14.276Z,61.10
2023-05-14T21:26:42.669Z,58.60
2023-05-14T21:29:11.240Z,54.00
2023-05-14T21:31:39.417Z,51.30
2023-05-14T21:34:07.828Z,55.80
2023-05-14T21:36:36.315Z,59.20
2023-05-14T21:39:04.719Z,61.80
2023-05-14T21:41:33.306Z,62.70
2023-05-14T21:44:01.230Z,57.80
2023-05-14T21:46:29.896Z,54.00
2023-05-14T21:48:58.352Z,52.60
2023-05-14T21:51:26.682Z,55.50
2023-05-14T21:53:55.193Z,59.20
2023-05-14T21:56:24.002Z,61.80
2023-05-14T21:58:52.188Z,63.70
2023-05-14T22:01:20.516Z,64.60
2023-05-14T22:03:49.021Z,58.00
2023-05-14T22:06:17.392Z,54.80
2023-05-14T22:08:45.722Z,52.20
2023-05-14T22:11:14.011Z,57.70
2023-05-14T22:13:42.523Z,60.70
2023-05-14T22:16:13.802Z,63.30
2023-05-14T22:18:42.965Z,65.40
2023-05-14T22:21:11.254Z,65.70
2023-05-14T22:23:39.614Z,58.60
2023-05-14T22:26:08.069Z,55.70
2023-05-14T22:28:36.693Z,54.50
2023-05-14T22:31:04.799Z,59.60
2023-05-14T22:33:33.432Z,62.00
2023-05-14T22:36:01.559Z,64.10
2023-05-14T22:38:30.033Z,62.70
2023-05-14T22:40:58.211Z,56.90
2023-05-14T22:43:26.617Z,54.80
2023-05-14T22:45:54.850Z,53.40
2023-05-14T22:48:23.097Z,53.00
2023-05-14T22:50:51.291Z,58.80
2023-05-14T22:53:19.605Z,61.30
2023-05-14T22:55:47.964Z,62.70
2023-05-14T22:58:16.111Z,59.70
2023-05-14T23:00:44.413Z,55.20
2023-05-14T23:03:12.814Z,53.40
2023-05-14T23:05:41.137Z,51.90
2023-05-14T23:08:09.445Z,57.20
2023-05-14T23:10:37.803Z,60.40
2023-05-14T23:13:05.994Z,62.80
2023-05-14T23:15:34.582Z,64.00
2023-05-14T23:18:03.011Z,58.20
2023-05-14T23:20:31.333Z,55.00
2023-05-14T23:22:59.542Z,53.30
2023-05-14T23:25:27.705Z,56.30
2023-05-14T23:27:56.034Z,60.40
2023-05-14T23:30:24.292Z,62.20
2023-05-14T23:32:52.996Z,62.10
2023-05-14T23:35:21.130Z,56.30
2023-05-14T23:37:49.481Z,54.10
2023-05-14T23:40:18.626Z,52.80
2023-05-14T23:42:46.905Z,56.80
2023-05-14T23:45:15.234Z,60.10
2023-05-14T23:47:43.744Z,62.90
2023-05-14T23:50:11.963Z,64.60
2023-05-14T23:52:40.274Z,58.20
2023-05-14T23:55:09.000Z,55.80
2023-05-14T23:57:37.286Z,54.40
